Terminal Aerodrome Forecast
Issued by NWS Wilmington, OH

Home | Current Version | Previous Version | Text Only | Print | Product List | Glossary On
Versions: 1 2 3 4 5 6 7 8 9 10 11 12 13 14 15 16 17 18
863
FTUS41 KILN 222018 AAA
TAFCMH
TAF AMD
KCMH 222018Z 2220/2318 21011KT P6SM VCSH BKN240
     FM222200 20010KT P6SM BKN060
     FM230200 19010KT P6SM -SHRA OVC060
     FM230800 21011KT 5SM -SHRA OVC015
     FM231600 23014KT 3SM -SHRA OVC020=

USA.gov is the U.S. government's official web portal to all federal, state and local government web resources and services.